Time;durP1;ratioP1;P1;durP2;ratioP2;P2;SDS_P1;SDS_P2;PMS_P1;PMS_P2;Temp;Humidity;BMP_temperature;BMP_pressure;BME280_temperature;BME280_humidity;BME280_pressure;Samples;Min_cycle;Max_cycle;Signal;HPM_P1;HPM_P2
2023/08/06 00:00:22;;;;;;;38.15;20.65;;;13.70;99.90;;;;;;5053544;28;20052;-30
2023/08/06 00:02:48;;;;;;;34.75;20.38;;;12.70;99.90;;;;;;5055311;28;20139;-29
2023/08/06 00:05:17;;;;;;;33.33;19.50;;;13.30;99.90;;;;;;5053950;28;20187;-29
2023/08/06 00:07:44;;;;;;;31.52;19.02;;;13.60;99.90;;;;;;5053325;28;20049;-30
2023/08/06 00:10:11;;;;;;;39.28;21.05;;;13.90;99.90;;;;;;5054508;28;20053;-29
2023/08/06 00:12:36;;;;;;;37.92;20.48;;;13.60;99.90;;;;;;5054517;28;20045;-29
2023/08/06 00:15:02;;;;;;;35.83;19.13;;;13.60;99.90;;;;;;5054250;28;20059;-29
2023/08/06 00:17:28;;;;;;;37.90;19.83;;;13.70;99.90;;;;;;5054338;28;20063;-29
2023/08/06 00:19:53;;;;;;;37.53;22.15;;;13.80;99.90;;;;;;5054331;28;20493;-29
2023/08/06 00:22:19;;;;;;;35.72;19.50;;;12.80;99.90;;;;;;5054863;28;20091;-28
2023/08/06 00:24:45;;;;;;;40.20;22.30;;;14.30;99.90;;;;;;5054213;28;20140;-29
2023/08/06 00:27:10;;;;;;;45.08;23.55;;;13.00;99.90;;;;;;5053061;28;20379;-29
2023/08/06 00:29:36;;;;;;;40.33;22.02;;;13.00;99.90;;;;;;5053894;28;20049;-28
2023/08/06 00:32:02;;;;;;;43.55;23.15;;;13.40;99.90;;;;;;5054105;28;20123;-30
2023/08/06 00:34:27;;;;;;;34.80;20.38;;;13.80;99.90;;;;;;5054132;28;20479;-29
2023/08/06 00:36:54;;;;;;;36.05;20.65;;;13.90;99.90;;;;;;5054043;28;20517;-29
2023/08/06 00:39:19;;;;;;;34.78;20.80;;;13.00;99.90;;;;;;5053084;28;20045;-28
2023/08/06 00:41:45;;;;;;;36.88;19.92;;;12.80;99.90;;;;;;5053027;28;20055;-29
2023/08/06 00:44:11;;;;;;;36.47;20.10;;;13.40;99.90;;;;;;5052987;28;20049;-29
2023/08/06 00:46:37;;;;;;;37.58;19.95;;;13.60;99.90;;;;;;5053669;28;20068;-29
2023/08/06 00:49:04;;;;;;;32.83;18.42;;;13.30;99.90;;;;;;5054176;28;20041;-29
2023/08/06 00:51:30;;;;;;;34.15;19.50;;;13.80;99.90;;;;;;5053833;28;20053;-29
2023/08/06 00:53:56;;;;;;;32.55;18.15;;;13.00;99.90;;;;;;5053765;28;20041;-29
2023/08/06 00:56:22;;;;;;;32.17;17.98;;;12.90;99.90;;;;;;5052610;28;20055;-29
2023/08/06 00:58:48;;;;;;;33.75;18.75;;;14.10;99.90;;;;;;5053685;28;20053;-29
2023/08/06 01:01:14;;;;;;;31.83;18.83;;;13.40;99.90;;;;;;5052976;28;20091;-29
2023/08/06 01:03:40;;;;;;;29.33;16.88;;;12.80;99.90;;;;;;5053607;28;20095;-29
2023/08/06 01:06:06;;;;;;;29.63;17.15;;;12.80;99.90;;;;;;5053696;28;20048;-29
2023/08/06 01:08:50;;;;;;;32.72;17.40;;;13.20;99.90;;;;;;5054412;28;20084;-30
2023/08/06 01:11:21;;;;;;;31.65;18.00;;;14.00;99.90;;;;;;5053245;28;20049;-29
2023/08/06 01:13:51;;;;;;;29.00;17.58;;;14.10;99.90;;;;;;5053538;28;20124;-29
2023/08/06 01:16:18;;;;;;;31.83;17.23;;;14.00;99.90;;;;;;5053360;28;20045;-29
2023/08/06 01:18:49;;;;;;;32.88;18.55;;;14.10;99.90;;;;;;5053495;28;20102;-29
2023/08/06 01:21:18;;;;;;;32.50;17.88;;;12.80;99.90;;;;;;5053388;28;20060;-29
2023/08/06 01:23:45;;;;;;;29.48;17.98;;;14.00;99.90;;;;;;5053419;28;20044;-29
2023/08/06 01:26:17;;;;;;;33.35;17.88;;;13.40;99.90;;;;;;5053404;28;20049;-30
2023/08/06 01:29:11;;;;;;;43.55;18.90;;;14.10;99.90;;;;;;5056139;28;20059;-29
2023/08/06 01:31:38;;;;;;;35.92;18.75;;;13.90;99.90;;;;;;5058054;28;20053;-29
2023/08/06 01:34:28;;;;;;;32.95;18.80;;;13.10;99.90;;;;;;5057493;28;20090;-28
2023/08/06 01:36:54;;;;;;;31.77;17.40;;;13.10;99.90;;;;;;5056613;28;20103;-29
2023/08/06 01:39:23;;;;;;;32.88;19.17;;;13.40;99.90;;;;;;5057404;28;20473;-29
2023/08/06 01:41:48;;;;;;;34.85;20.23;;;12.80;99.90;;;;;;5057665;28;20387;-29
2023/08/06 01:44:16;;;;;;;37.35;19.50;;;13.90;99.90;;;;;;5057217;28;20037;-30
2023/08/06 01:46:42;;;;;;;36.92;20.85;;;12.80;99.90;;;;;;5057248;28;20045;-29
2023/08/06 01:49:07;;;;;;;36.55;20.13;;;13.70;99.90;;;;;;5057259;28;20110;-29
2023/08/06 01:51:33;;;;;;;34.20;20.40;;;12.80;99.90;;;;;;5057736;28;20352;-29
2023/08/06 01:53:59;;;;;;;37.60;19.70;;;13.00;99.90;;;;;;5057146;28;20437;-29
2023/08/06 01:56:25;;;;;;;41.53;19.52;;;13.00;99.90;;;;;;5056368;28;20111;-29
2023/08/06 01:58:50;;;;;;;35.13;19.02;;;12.90;99.90;;;;;;5057026;28;20060;-29
2023/08/06 02:01:17;;;;;;;37.25;20.70;;;13.20;99.90;;;;;;5057395;28;20053;-30
2023/08/06 02:03:42;;;;;;;36.60;20.02;;;14.00;99.90;;;;;;5055709;28;20047;-29
2023/08/06 02:06:08;;;;;;;39.83;21.42;;;13.60;99.90;;;;;;5057445;28;20049;-29
2023/08/06 02:08:34;;;;;;;32.25;18.20;;;13.00;99.90;;;;;;5039754;28;20057;-29
2023/08/06 02:11:00;;;;;;;33.35;19.92;;;13.40;99.90;;;;;;5039238;28;20051;-30
2023/08/06 02:13:25;;;;;;;34.67;20.60;;;13.20;99.90;;;;;;5055648;28;20418;-29
2023/08/06 02:15:51;;;;;;;35.97;20.30;;;13.00;99.90;;;;;;5056760;28;20395;-29
2023/08/06 02:18:17;;;;;;;37.00;22.35;;;13.20;99.90;;;;;;5057259;28;20485;-29
2023/08/06 02:20:43;;;;;;;42.60;23.92;;;13.20;99.90;;;;;;5056664;28;20044;-29
2023/08/06 02:23:09;;;;;;;39.03;21.92;;;13.80;99.90;;;;;;5056550;28;20041;-29
2023/08/06 02:25:35;;;;;;;39.47;22.75;;;12.90;99.90;;;;;;5056267;28;20553;-31
2023/08/06 02:28:01;;;;;;;43.75;22.85;;;13.00;99.90;;;;;;5056475;28;20045;-29
2023/08/06 02:30:26;;;;;;;51.05;23.85;;;13.10;99.90;;;;;;5056087;28;20056;-29
2023/08/06 02:32:52;;;;;;;41.55;23.17;;;14.20;99.90;;;;;;5056914;28;20047;-29
2023/08/06 02:35:18;;;;;;;37.28;21.35;;;13.00;99.90;;;;;;5056367;28;20056;-29
2023/08/06 02:37:43;;;;;;;39.58;22.27;;;13.00;99.90;;;;;;5056322;28;20052;-28
2023/08/06 02:40:10;;;;;;;45.13;24.88;;;14.20;99.90;;;;;;5056942;28;20040;-29
2023/08/06 02:42:35;;;;;;;46.30;24.48;;;12.90;99.90;;;;;;5056150;28;20045;-28
2023/08/06 02:45:01;;;;;;;43.78;23.85;;;13.30;99.90;;;;;;5056725;28;20493;-30
2023/08/06 02:47:27;;;;;;;42.88;23.23;;;13.70;99.90;;;;;;5056133;28;20126;-29
2023/08/06 02:49:53;;;;;;;44.63;23.77;;;13.20;99.90;;;;;;5055526;28;20055;-29
2023/08/06 02:52:18;;;;;;;47.38;23.80;;;12.90;99.90;;;;;;5056099;28;20045;-30
2023/08/06 02:54:44;;;;;;;51.75;24.23;;;12.90;99.90;;;;;;5056292;28;20067;-29
2023/08/06 02:57:10;;;;;;;45.75;25.15;;;12.90;99.90;;;;;;5055949;28;20541;-30
2023/08/06 02:59:35;;;;;;;46.67;25.25;;;13.10;99.90;;;;;;5056477;28;20048;-29
2023/08/06 03:02:01;;;;;;;55.58;25.30;;;13.90;99.90;;;;;;5055028;28;20089;-29
2023/08/06 03:04:27;;;;;;;48.30;24.75;;;13.90;99.90;;;;;;5056302;28;20045;-29
2023/08/06 03:06:53;;;;;;;45.78;24.40;;;14.20;99.90;;;;;;5056007;28;20045;-29
2023/08/06 03:09:18;;;;;;;44.85;24.63;;;12.90;99.90;;;;;;5055740;28;20049;-29
2023/08/06 03:11:44;;;;;;;45.72;23.60;;;14.20;99.90;;;;;;5054535;28;20095;-30
2023/08/06 03:14:10;;;;;;;52.92;25.08;;;13.90;99.90;;;;;;5055622;28;20055;-29
2023/08/06 03:16:35;;;;;;;48.78;24.05;;;13.00;99.90;;;;;;5055606;28;20095;-30
2023/08/06 03:19:01;;;;;;;49.03;24.88;;;13.00;99.90;;;;;;5056126;28;20049;-29
2023/08/06 03:21:27;;;;;;;57.72;26.63;;;13.90;99.90;;;;;;5054597;28;20056;-29
2023/08/06 03:23:53;;;;;;;42.97;24.20;;;14.10;99.90;;;;;;5055141;28;20041;-30
2023/08/06 03:26:18;;;;;;;50.47;24.95;;;14.10;99.90;;;;;;5055434;28;20076;-29
2023/08/06 03:28:44;;;;;;;50.40;24.63;;;14.20;99.90;;;;;;5055128;28;20049;-29
2023/08/06 03:31:10;;;;;;;51.17;26.45;;;14.00;99.90;;;;;;5055366;28;20077;-29
2023/08/06 03:33:36;;;;;;;53.35;26.55;;;14.70;99.90;;;;;;5054833;28;20489;-29
2023/08/06 03:36:02;;;;;;;51.13;25.38;;;14.00;99.90;;;;;;5055282;28;20044;-29
2023/08/06 03:38:28;;;;;;;58.45;26.58;;;12.90;99.90;;;;;;5037898;28;20048;-29
2023/08/06 03:40:53;;;;;;;55.33;26.88;;;14.00;99.90;;;;;;5055110;28;20037;-30
2023/08/06 03:43:19;;;;;;;59.70;26.88;;;12.90;99.90;;;;;;5053970;28;20127;-29
2023/08/06 03:45:45;;;;;;;46.70;25.88;;;13.90;99.90;;;;;;5055070;28;20064;-29
2023/08/06 03:48:12;;;;;;;51.45;26.10;;;13.80;99.90;;;;;;5053811;28;20049;-29
2023/08/06 03:50:38;;;;;;;52.70;26.23;;;14.10;99.90;;;;;;5054898;28;20056;-29
2023/08/06 03:53:04;;;;;;;61.40;28.88;;;14.20;99.90;;;;;;5053736;28;20033;-29
2023/08/06 03:55:30;;;;;;;55.97;26.75;;;13.00;99.90;;;;;;5054187;28;20056;-29
2023/08/06 03:57:55;;;;;;;54.40;27.50;;;14.00;99.90;;;;;;5053619;28;20045;-29
2023/08/06 04:00:21;;;;;;;52.35;27.85;;;13.20;99.90;;;;;;5054776;28;20049;-29
2023/08/06 04:02:47;;;;;;;51.15;26.35;;;13.20;99.90;;;;;;5054616;28;20092;-29
2023/08/06 04:05:13;;;;;;;62.78;27.95;;;14.10;99.90;;;;;;5054667;28;20053;-29
2023/08/06 04:07:39;;;;;;;44.70;25.52;;;14.30;99.90;;;;;;5054604;28;20056;-30
2023/08/06 04:10:05;;;;;;;60.45;27.83;;;14.10;99.90;;;;;;5054570;28;20044;-29
2023/08/06 04:12:32;;;;;;;53.95;26.20;;;13.70;99.90;;;;;;5054476;28;20487;-30
2023/08/06 04:14:58;;;;;;;59.92;28.20;;;14.40;99.90;;;;;;5054506;28;20102;-30
2023/08/06 04:17:24;;;;;;;61.80;28.73;;;14.20;99.90;;;;;;5054454;28;20132;-29
2023/08/06 04:19:52;;;;;;;48.58;25.60;;;13.00;99.90;;;;;;5053725;28;20149;-30
2023/08/06 04:22:18;;;;;;;46.53;24.63;;;14.20;99.90;;;;;;5054653;28;20483;-30
2023/08/06 04:24:44;;;;;;;49.38;26.75;;;13.10;99.90;;;;;;5053590;28;20072;-29
2023/08/06 04:27:12;;;;;;;52.85;27.48;;;13.50;99.90;;;;;;5054512;28;20060;-29
2023/08/06 04:29:38;;;;;;;48.75;25.58;;;13.20;99.90;;;;;;5054196;28;20041;-31
2023/08/06 04:32:06;;;;;;;48.13;25.25;;;14.00;99.90;;;;;;5054955;28;20433;-30
2023/08/06 04:34:32;;;;;;;42.28;23.13;;;13.30;99.90;;;;;;5053728;28;20403;-30
2023/08/06 04:36:59;;;;;;;50.20;25.27;;;13.50;99.90;;;;;;5054075;28;20045;-29
2023/08/06 04:39:25;;;;;;;51.75;25.35;;;14.00;99.90;;;;;;5054057;28;20049;-29
2023/08/06 04:41:50;;;;;;;54.10;26.27;;;14.40;99.90;;;;;;5054226;28;20049;-29
2023/08/06 04:44:16;;;;;;;49.10;24.50;;;14.10;99.90;;;;;;5053922;28;20037;-30
2023/08/06 04:46:42;;;;;;;50.00;24.73;;;13.90;99.90;;;;;;5053940;28;20045;-30
2023/08/06 04:49:07;;;;;;;52.50;24.77;;;13.30;99.90;;;;;;5054494;28;20422;-29
2023/08/06 04:51:33;;;;;;;52.97;26.48;;;14.00;99.90;;;;;;5053813;28;20095;-30
2023/08/06 04:53:59;;;;;;;49.60;25.95;;;14.60;99.90;;;;;;5053850;28;20044;-29
2023/08/06 04:56:25;;;;;;;51.58;25.83;;;13.50;99.90;;;;;;5054215;28;20044;-29
2023/08/06 04:58:50;;;;;;;46.72;25.88;;;13.90;99.90;;;;;;5053629;28;20048;-31
2023/08/06 05:01:16;;;;;;;53.45;27.58;;;14.50;99.90;;;;;;5053327;28;20122;-29
2023/08/06 05:03:42;;;;;;;48.42;26.65;;;13.50;99.90;;;;;;5052312;28;20522;-29
2023/08/06 05:06:07;;;;;;;46.65;25.17;;;13.60;99.90;;;;;;5052721;28;20552;-29
2023/08/06 05:08:33;;;;;;;44.15;24.90;;;13.60;99.90;;;;;;5053337;28;20131;-30
2023/08/06 05:10:59;;;;;;;48.20;26.08;;;13.70;99.90;;;;;;5054110;28;20131;-29
2023/08/06 05:13:25;;;;;;;48.53;25.75;;;13.70;99.90;;;;;;5054683;28;20049;-29
2023/08/06 05:15:53;;;;;;;42.00;24.65;;;14.70;99.90;;;;;;5054174;28;20463;-30
2023/08/06 05:18:19;;;;;;;39.47;22.40;;;15.10;99.90;;;;;;5054099;28;20088;-29
2023/08/06 05:20:44;;;;;;;36.70;22.45;;;14.90;99.90;;;;;;5054349;28;20137;-29
2023/08/06 05:23:10;;;;;;;38.22;22.38;;;14.80;99.90;;;;;;5053697;28;20052;-30
2023/08/06 05:25:36;;;;;;;33.70;21.10;;;13.80;99.90;;;;;;5052801;28;20422;-30
2023/08/06 05:28:02;;;;;;;37.17;21.77;;;14.10;99.90;;;;;;5053425;28;20392;-30
2023/08/06 05:30:28;;;;;;;37.25;22.35;;;14.50;99.90;;;;;;5035881;28;20084;-30
2023/08/06 05:32:55;;;;;;;30.88;20.13;;;15.10;99.90;;;;;;5053212;28;20099;-31
2023/08/06 05:35:21;;;;;;;30.95;19.95;;;14.70;99.90;;;;;;5053910;28;20099;-30
2023/08/06 05:37:47;;;;;;;32.08;20.10;;;14.80;99.90;;;;;;5053650;28;20049;-31
2023/08/06 05:40:13;;;;;;;27.75;18.50;;;15.10;99.90;;;;;;5052205;28;20566;-30
2023/08/06 05:42:40;;;;;;;29.83;19.23;;;14.70;99.90;;;;;;5052084;28;20091;-30
2023/08/06 05:45:06;;;;;;;24.80;17.58;;;15.20;99.90;;;;;;5053353;28;20053;-29
2023/08/06 05:47:31;;;;;;;25.48;17.75;;;15.10;99.90;;;;;;5052726;28;20048;-29
2023/08/06 05:49:57;;;;;;;23.85;16.88;;;15.20;99.90;;;;;;5053279;28;20045;-29
2023/08/06 05:52:23;;;;;;;22.67;17.00;;;15.00;99.90;;;;;;5052240;28;20479;-29
2023/08/06 05:54:49;;;;;;;24.88;16.58;;;15.20;99.90;;;;;;5052571;28;20044;-29
2023/08/06 05:57:14;;;;;;;25.17;16.00;;;15.00;99.90;;;;;;5052242;28;20116;-29
2023/08/06 05:59:41;;;;;;;20.05;15.15;;;15.00;99.90;;;;;;5054271;28;20056;-29
2023/08/06 06:02:07;;;;;;;18.05;14.13;;;14.80;99.90;;;;;;5052695;28;20499;-29
2023/08/06 06:04:32;;;;;;;22.05;14.75;;;14.60;99.90;;;;;;5053636;28;20123;-28
2023/08/06 06:06:58;;;;;;;20.95;15.10;;;14.50;99.90;;;;;;5052784;28;20098;-29
2023/08/06 06:09:24;;;;;;;22.83;15.93;;;14.70;99.90;;;;;;5052158;28;20041;-29
2023/08/06 06:11:50;;;;;;;25.02;14.88;;;14.70;99.90;;;;;;5053592;28;20045;-28
2023/08/06 06:14:17;;;;;;;20.02;14.75;;;14.90;99.90;;;;;;5054745;28;20033;-29
2023/08/06 06:16:43;;;;;;;24.88;17.27;;;14.60;99.90;;;;;;5056773;28;20041;-29
2023/08/06 06:19:09;;;;;;;26.42;16.63;;;14.70;99.90;;;;;;5056724;28;20548;-29
2023/08/06 06:21:34;;;;;;;22.55;15.63;;;15.00;99.90;;;;;;5056671;28;20053;-29
2023/08/06 06:24:00;;;;;;;19.25;15.02;;;15.10;99.90;;;;;;5056798;28;20045;-30
2023/08/06 06:26:26;;;;;;;20.88;15.43;;;15.10;99.90;;;;;;5055674;28;20049;-29
2023/08/06 06:28:52;;;;;;;24.67;16.45;;;15.20;99.90;;;;;;5056527;28;20095;-29
2023/08/06 06:31:18;;;;;;;21.60;15.02;;;15.00;99.90;;;;;;5056953;28;20044;-28
2023/08/06 06:33:43;;;;;;;20.67;15.15;;;15.30;99.90;;;;;;5056711;28;20195;-28
2023/08/06 06:36:09;;;;;;;18.55;14.20;;;15.20;99.90;;;;;;5056923;28;20078;-30
2023/08/06 06:38:36;;;;;;;19.80;15.40;;;15.50;99.90;;;;;;5055647;28;20057;-29
2023/08/06 06:41:03;;;;;;;16.95;13.38;;;15.40;99.90;;;;;;5056828;28;20060;-29
2023/08/06 06:43:29;;;;;;;20.65;13.65;;;15.50;99.90;;;;;;5038524;28;20135;-30
2023/08/06 06:45:58;;;;;;;18.08;14.68;;;15.40;99.90;;;;;;5056197;28;20156;-29
2023/08/06 06:48:28;;;;;;;13.65;12.13;;;15.50;99.90;;;;;;5056133;28;20041;-30
2023/08/06 06:50:55;;;;;;;15.43;11.68;;;15.50;99.90;;;;;;5055778;28;20522;-28
2023/08/06 06:53:23;;;;;;;15.18;12.20;;;15.60;99.90;;;;;;5056604;28;20049;-29
2023/08/06 06:55:49;;;;;;;15.15;11.88;;;15.50;99.90;;;;;;5055623;28;20423;-30
2023/08/06 06:58:16;;;;;;;13.95;11.13;;;15.60;99.90;;;;;;5054774;28;20041;-29
2023/08/06 07:00:41;;;;;;;15.35;12.30;;;15.60;99.90;;;;;;5054985;28;20087;-29
2023/08/06 07:03:07;;;;;;;15.20;11.38;;;15.60;99.90;;;;;;5055441;28;20084;-29
2023/08/06 07:05:33;;;;;;;15.02;10.98;;;15.70;99.90;;;;;;5055908;28;20049;-29
2023/08/06 07:07:59;;;;;;;13.77;10.90;;;15.80;99.90;;;;;;5056346;28;20047;-29
2023/08/06 07:10:26;;;;;;;13.50;11.95;;;16.00;99.90;;;;;;5055782;28;20045;-29
2023/08/06 07:12:51;;;;;;;13.05;11.65;;;16.10;99.90;;;;;;5055575;28;20056;-29
2023/08/06 07:15:17;;;;;;;12.13;9.88;;;16.30;99.90;;;;;;5055438;28;20041;-29
2023/08/06 07:17:43;;;;;;;14.80;11.25;;;16.60;99.90;;;;;;5054728;28;20095;-29
2023/08/06 07:20:09;;;;;;;11.27;10.07;;;16.80;99.90;;;;;;5054992;28;20041;-29
2023/08/06 07:22:35;;;;;;;12.48;9.45;;;16.90;99.90;;;;;;5054564;28;20052;-30
2023/08/06 07:25:01;;;;;;;9.82;8.65;;;17.10;99.90;;;;;;5053621;28;20072;-29
2023/08/06 07:27:27;;;;;;;12.75;8.98;;;17.20;99.90;;;;;;5055301;28;20491;-29
2023/08/06 07:29:53;;;;;;;9.32;7.45;;;17.30;99.90;;;;;;5054456;28;20045;-29
2023/08/06 07:32:18;;;;;;;7.80;7.00;;;17.60;99.90;;;;;;5055850;28;20131;-29
2023/08/06 07:34:44;;;;;;;8.38;7.57;;;17.80;99.90;;;;;;5055331;28;20040;-29
2023/08/06 07:37:10;;;;;;;10.73;7.72;;;18.10;99.90;;;;;;5054991;28;20148;-29
2023/08/06 07:39:37;;;;;;;9.45;6.53;;;18.30;99.90;;;;;;5055232;28;20048;-31
2023/08/06 07:42:05;;;;;;;7.65;5.90;;;18.70;99.90;;;;;;5055712;28;20052;-29
2023/08/06 07:44:31;;;;;;;7.53;5.47;;;18.80;99.90;;;;;;5054641;28;20127;-29
2023/08/06 07:46:57;;;;;;;6.80;4.95;;;18.90;99.90;;;;;;5055052;28;20148;-29
2023/08/06 07:49:22;;;;;;;7.38;5.65;;;19.10;99.90;;;;;;5055063;28;20048;-29
2023/08/06 07:51:48;;;;;;;4.97;4.47;;;19.40;99.90;;;;;;5054963;28;20091;-29
2023/08/06 07:54:14;;;;;;;6.63;4.38;;;19.90;99.90;;;;;;5055228;28;20087;-31
2023/08/06 07:56:39;;;;;;;5.32;4.50;;;20.10;99.90;;;;;;5054750;28;20359;-30
2023/08/06 07:59:05;;;;;;;6.03;3.60;;;20.10;99.90;;;;;;5054883;28;20133;-29
2023/08/06 08:01:31;;;;;;;6.43;3.92;;;20.20;99.90;;;;;;5037587;28;20052;-29
2023/08/06 08:03:56;;;;;;;4.15;3.33;;;20.40;99.90;;;;;;5054468;28;20116;-30
2023/08/06 08:06:23;;;;;;;4.00;3.10;;;20.70;99.90;;;;;;5055521;28;20056;-29
2023/08/06 08:08:49;;;;;;;3.95;2.88;;;20.80;99.90;;;;;;5055240;28;20049;-28
2023/08/06 08:11:15;;;;;;;3.67;3.25;;;20.90;99.90;;;;;;5054593;28;20044;-28
2023/08/06 08:13:42;;;;;;;6.97;4.07;;;21.00;99.90;;;;;;5054602;28;20045;-29
2023/08/06 08:16:07;;;;;;;4.47;3.53;;;21.10;99.90;;;;;;5053396;28;20479;-31
2023/08/06 08:18:33;;;;;;;7.95;4.50;;;21.30;99.90;;;;;;5053476;28;20056;-29
2023/08/06 08:20:59;;;;;;;6.50;3.35;;;21.60;50.40;;;;;;5054409;28;20045;-29
2023/08/06 08:23:25;;;;;;;4.43;3.42;;;21.50;1.00;;;;;;5054276;28;20052;-29
2023/08/06 08:25:51;;;;;;;7.47;3.67;;;21.30;99.90;;;;;;5053114;28;20422;-29
2023/08/06 08:28:16;;;;;;;3.67;3.00;;;21.20;99.90;;;;;;5053179;28;20045;-28
2023/08/06 08:30:42;;;;;;;4.43;2.90;;;21.10;99.90;;;;;;5054551;28;20122;-28
2023/08/06 08:33:08;;;;;;;5.13;3.30;;;21.10;99.90;;;;;;5054283;28;20376;-29
2023/08/06 08:35:35;;;;;;;3.67;3.38;;;21.10;99.90;;;;;;5054711;28;20098;-28
2023/08/06 08:38:01;;;;;;;4.10;3.50;;;21.10;1.00;;;;;;5053908;28;20052;-28
2023/08/06 08:40:31;;;;;;;4.65;3.10;;;21.20;1.00;;;;;;5054643;28;20128;-29
2023/08/06 08:42:58;;;;;;;3.70;3.17;;;21.00;1.00;;;;;;5054036;28;20052;-28
2023/08/06 08:45:28;;;;;;;6.32;3.22;;;21.00;1.00;;;;;;5053983;28;20513;-30
2023/08/06 08:47:54;;;;;;;3.47;2.28;;;21.00;1.00;;;;;;5053931;28;20115;-29
2023/08/06 08:50:20;;;;;;;4.82;2.67;;;21.20;1.00;;;;;;5054176;28;20048;-29
2023/08/06 08:52:45;;;;;;;4.85;2.03;;;21.40;1.00;;;;;;5052950;28;20076;-29
2023/08/06 08:55:13;;;;;;;3.67;2.50;;;21.70;99.90;;;;;;5053701;28;20371;-28
2023/08/06 08:57:39;;;;;;;5.97;2.42;;;21.90;99.90;;;;;;5053877;28;20429;-28
2023/08/06 09:00:06;;;;;;;4.18;2.30;;;22.00;99.90;;;;;;5054672;28;20101;-29
2023/08/06 09:02:33;;;;;;;4.13;2.42;;;22.30;99.90;;;;;;5053568;28;20045;-28
2023/08/06 09:05:04;;;;;;;3.30;2.45;;;22.70;99.90;;;;;;5053729;28;20044;-29
2023/08/06 09:07:38;;;;;;;3.00;2.53;;;23.10;65.80;;;;;;5053457;28;20487;-30
2023/08/06 09:10:06;;;;;;;4.80;2.75;;;23.30;1.00;;;;;;5053628;28;20522;-29
2023/08/06 09:12:32;;;;;;;5.28;2.70;;;23.20;99.90;;;;;;5053638;28;20055;-28
2023/08/06 09:14:58;;;;;;;2.50;2.30;;;23.10;90.10;;;;;;5052713;28;20128;-29
2023/08/06 09:17:24;;;;;;;2.13;1.80;;;22.90;1.00;;;;;;5053863;28;20053;-29
2023/08/06 09:19:50;;;;;;;5.78;1.70;;;22.80;1.00;;;;;;5053527;28;20049;-29
2023/08/06 09:22:15;;;;;;;4.57;2.40;;;22.80;1.00;;;;;;5053521;28;20053;-29
2023/08/06 09:24:43;;;;;;;2.30;1.70;;;22.40;1.00;;;;;;5054265;28;20063;-31
2023/08/06 09:27:13;;;;;;;1.55;1.05;;;22.60;1.00;;;;;;5053550;28;20041;-28
2023/08/06 09:29:46;;;;;;;3.17;1.70;;;22.60;99.90;;;;;;5054282;28;20056;-28
2023/08/06 09:32:12;;;;;;;;;;;22.60;29.20;;;;;;5053758;28;20525;-28
2023/08/06 09:34:45;;;;;;;1.88;1.20;;;22.60;1.00;;;;;;5053422;28;19927;-29
2023/08/06 09:37:11;;;;;;;2.80;1.08;;;22.70;99.90;;;;;;5052440;28;20443;-28
2023/08/06 09:39:40;;;;;;;1.92;1.40;;;22.70;99.90;;;;;;5053368;28;20045;-28
2023/08/06 09:42:06;;;;;;;1.48;1.10;;;22.70;1.00;;;;;;5053393;28;20052;-29
2023/08/06 09:44:33;;;;;;;1.83;1.38;;;22.70;1.00;;;;;;5053031;28;20045;-29
2023/08/06 09:47:03;;;;;;;4.85;1.50;;;22.70;1.00;;;;;;5053307;28;20041;-28
2023/08/06 09:49:42;;;;;;;3.40;1.55;;;23.10;1.00;;;;;;5055537;28;20052;-28
2023/08/06 09:52:12;;;;;;;2.78;2.08;;;23.70;99.90;;;;;;5056605;28;20064;-29
2023/08/06 09:54:38;;;;;;;2.55;1.70;;;24.10;1.00;;;;;;5057454;28;20554;-28
2023/08/06 09:57:05;;;;;;;4.60;1.98;;;24.30;67.70;;;;;;5057157;28;20118;-28
2023/08/06 09:59:32;;;;;;;3.55;1.85;;;24.60;1.00;;;;;;5057136;28;20053;-29
2023/08/06 10:01:58;;;;;;;2.95;1.70;;;24.60;1.00;;;;;;5040304;28;20061;-28
2023/08/06 10:04:24;;;;;;;3.88;1.55;;;24.70;99.90;;;;;;5057587;28;20143;-30
2023/08/06 10:06:50;;;;;;;3.75;1.83;;;24.20;74.00;;;;;;5057032;28;20179;-28
2023/08/06 10:09:16;;;;;;;2.53;1.80;;;23.70;99.90;;;;;;5056975;28;20045;-29
2023/08/06 10:11:50;;;;;;;2.08;1.55;;;23.40;99.90;;;;;;5056883;28;20045;-28
2023/08/06 10:14:25;;;;;;;2.85;1.58;;;23.30;99.90;;;;;;5057425;28;20041;-29
2023/08/06 10:16:51;;;;;;;2.58;1.80;;;23.40;80.80;;;;;;5057145;28;20208;-28
2023/08/06 10:19:17;;;;;;;1.98;1.25;;;23.90;99.90;;;;;;5057346;28;20120;-28
2023/08/06 10:22:11;;;;;;;3.95;1.58;;;24.20;99.90;;;;;;5056685;28;20075;-28
2023/08/06 10:24:48;;;;;;;5.10;1.60;;;24.70;99.90;;;;;;5056551;28;20041;-28
2023/08/06 10:27:13;;;;;;;2.35;1.30;;;25.10;99.90;;;;;;5056554;28;20502;-28
2023/08/06 10:29:39;;;;;;;3.67;1.60;;;25.50;99.90;;;;;;5056643;28;20053;-29
2023/08/06 10:32:05;;;;;;;3.50;1.10;;;25.70;99.90;;;;;;5056441;28;20063;-28
2023/08/06 10:34:57;;;;;;;2.65;1.27;;;25.40;99.90;;;;;;5055807;28;20049;-28
2023/08/06 10:37:24;;;;;;;2.15;1.33;;;24.90;1.00;;;;;;5054856;28;20103;-28
2023/08/06 10:39:51;;;;;;;2.13;1.55;;;24.40;99.90;;;;;;5056386;28;20052;-28
2023/08/06 10:42:27;;;;;;;2.85;1.20;;;24.60;99.90;;;;;;5056305;28;20049;-29
2023/08/06 10:45:15;;;;;;;2.22;1.08;;;24.70;99.90;;;;;;5055679;28;20045;-29
2023/08/06 10:47:41;;;;;;;1.63;1.20;;;24.50;1.00;;;;;;5055259;28;20491;-28
2023/08/06 10:50:10;;;;;;;2.38;1.10;;;24.80;1.00;;;;;;5055898;28;20498;-29
2023/08/06 10:52:36;;;;;;;1.30;0.90;;;24.90;75.60;;;;;;5056113;28;20049;-29
2023/08/06 10:55:02;;;;;;;2.25;1.20;;;25.00;1.00;;;;;;5056103;28;20067;-28
2023/08/06 10:57:28;;;;;;;1.80;1.10;;;25.10;1.00;;;;;;5055817;28;20048;-27
2023/08/06 10:59:53;;;;;;;2.15;0.90;;;25.40;1.00;;;;;;5044654;28;20053;-28
2023/08/06 11:02:19;;;;;;;3.13;1.10;;;25.70;1.00;;;;;;5050072;28;20052;-28
2023/08/06 11:04:45;;;;;;;2.38;1.45;;;25.80;1.00;;;;;;5050303;28;20042;-27
2023/08/06 11:07:13;;;;;;;2.78;2.28;;;25.80;99.90;;;;;;5049921;28;20060;-28
2023/08/06 11:09:39;;;;;;;1.80;1.00;;;26.00;1.00;;;;;;5047197;28;20115;-28
2023/08/06 11:12:10;;;;;;;1.70;0.85;;;26.30;1.00;;;;;;5040848;28;20539;-27
2023/08/06 11:14:35;;;;;;;1.90;1.02;;;26.40;99.90;;;;;;5049616;28;20037;-28
2023/08/06 11:17:01;;;;;;;2.33;1.20;;;26.60;99.90;;;;;;5039086;28;20133;-29
2023/08/06 11:19:27;;;;;;;2.50;1.20;;;26.70;99.90;;;;;;5050054;28;20564;-29
2023/08/06 11:21:54;;;;;;;6.28;2.30;;;26.50;99.90;;;;;;5050395;28;20053;-28
2023/08/06 11:24:20;;;;;;;2.72;1.30;;;26.50;99.90;;;;;;5019158;28;20045;-28
2023/08/06 11:26:46;;;;;;;2.00;1.48;;;26.10;99.90;;;;;;5053414;28;20475;-28
2023/08/06 11:29:11;;;;;;;4.85;1.42;;;25.60;99.90;;;;;;5053813;28;20049;-28
2023/08/06 11:31:37;;;;;;;2.78;1.00;;;25.30;99.90;;;;;;5032598;28;20048;-28
2023/08/06 11:34:03;;;;;;;4.43;2.20;;;25.40;99.90;;;;;;5018775;28;20048;-28
2023/08/06 11:36:33;;;;;;;4.30;1.20;;;25.40;99.90;;;;;;5046252;28;20068;-28
2023/08/06 11:39:05;;;;;;;1.55;0.93;;;25.40;99.90;;;;;;5034654;28;20093;-28
2023/08/06 11:41:31;;;;;;;2.75;1.40;;;25.50;1.00;;;;;;5050187;28;20048;-28
2023/08/06 11:44:00;;;;;;;1.77;1.13;;;25.30;1.00;;;;;;5055077;28;20037;-28
2023/08/06 11:46:26;;;;;;;1.48;1.10;;;25.20;1.00;;;;;;5053933;28;20048;-28
2023/08/06 11:48:58;;;;;;;2.00;1.10;;;25.40;1.00;;;;;;5070746;28;20037;-29
2023/08/06 11:51:28;;;;;;;2.88;1.27;;;25.40;99.90;;;;;;5075018;28;20048;-28
2023/08/06 11:54:00;;;;;;;14.40;1.95;;;24.50;99.90;;;;;;5057208;28;20099;-28
2023/08/06 11:56:26;;;;;;;3.47;1.13;;;24.30;1.00;;;;;;5055227;28;20118;-28
2023/08/06 11:58:52;;;;;;;2.13;1.10;;;24.20;1.00;;;;;;5054349;28;20111;-28
2023/08/06 12:01:18;;;;;;;1.55;0.88;;;24.10;1.00;;;;;;5045341;28;20042;-29
2023/08/06 12:03:44;;;;;;;2.38;0.93;;;24.00;1.00;;;;;;5043139;28;20099;-28
2023/08/06 12:06:10;;;;;;;2.00;1.05;;;24.10;1.00;;;;;;5052357;28;20395;-28
2023/08/06 12:08:38;;;;;;;2.47;1.00;;;24.30;1.00;;;;;;5037255;28;20055;-28
2023/08/06 12:11:03;;;;;;;2.78;1.10;;;24.20;99.90;;;;;;5044490;28;20090;-28
2023/08/06 12:13:29;;;;;;;2.50;1.55;;;24.40;1.00;;;;;;5035423;28;20125;-29
2023/08/06 12:15:57;;;;;;;3.70;1.38;;;24.70;1.00;;;;;;5035738;28;20067;-28
2023/08/06 12:18:23;;;;;;;2.72;1.55;;;24.50;1.00;;;;;;5034563;28;20057;-28
2023/08/06 12:20:48;;;;;;;2.00;1.40;;;24.30;1.00;;;;;;5034357;28;20098;-28
2023/08/06 12:23:15;;;;;;;1.88;1.13;;;24.50;1.00;;;;;;5035655;28;20452;-29
2023/08/06 12:25:41;;;;;;;3.30;1.33;;;24.80;1.00;;;;;;5051373;28;20150;-30
2023/08/06 12:28:08;;;;;;;3.22;1.30;;;24.50;1.00;;;;;;5054227;28;20049;-28
2023/08/06 12:30:34;;;;;;;4.85;1.35;;;24.50;1.00;;;;;;5049234;28;20605;-28
2023/08/06 12:32:59;;;;;;;2.03;1.10;;;24.30;1.00;;;;;;5050705;28;20123;-28
2023/08/06 12:35:26;;;;;;;1.48;1.15;;;24.10;1.00;;;;;;5054200;28;20067;-28